METAR Data
IDs: Format: Raw Decoded Include TAF

Data at: 2051 UTC 01 Dec 2021

KRNT 011953Z AUTO 18013G26KT 10SM BKN110 14/08 A3013 RMK AO2 PK WND 18026/1944 SLP209 T01440083 $